sensor_id;sensor_type;location;lat;lon;timestamp;P1;durP1;ratioP1;P2;durP2;ratioP2
31906;SDS011;18455;50.858;13.662;2023-05-02T00:02:12;14.87;;;10.10;;
31906;SDS011;18455;50.858;13.662;2023-05-02T00:07:12;16.77;;;10.60;;
31906;SDS011;18455;50.858;13.662;2023-05-02T00:12:12;16.70;;;10.50;;
31906;SDS011;18455;50.858;13.662;2023-05-02T00:17:16;15.20;;;10.47;;
31906;SDS011;18455;50.858;13.662;2023-05-02T00:22:20;14.67;;;10.47;;
31906;SDS011;18455;50.858;13.662;2023-05-02T00:27:20;15.87;;;11.63;;
31906;SDS011;18455;50.858;13.662;2023-05-02T00:32:21;13.80;;;11.33;;
31906;SDS011;18455;50.858;13.662;2023-05-02T00:37:24;18.30;;;12.30;;
31906;SDS011;18455;50.858;13.662;2023-05-02T00:42:25;14.63;;;10.93;;
31906;SDS011;18455;50.858;13.662;2023-05-02T00:47:25;16.57;;;11.17;;
31906;SDS011;18455;50.858;13.662;2023-05-02T00:52:27;14.20;;;9.83;;
31906;SDS011;18455;50.858;13.662;2023-05-02T00:57:27;14.43;;;9.93;;
31906;SDS011;18455;50.858;13.662;2023-05-02T01:02:37;19.70;;;10.53;;
31906;SDS011;18455;50.858;13.662;2023-05-02T01:07:52;12.67;;;9.63;;
31906;SDS011;18455;50.858;13.662;2023-05-02T01:13:08;13.67;;;10.37;;
31906;SDS011;18455;50.858;13.662;2023-05-02T01:18:12;14.57;;;9.43;;
31906;SDS011;18455;50.858;13.662;2023-05-02T01:23:21;13.17;;;9.53;;
31906;SDS011;18455;50.858;13.662;2023-05-02T01:33:42;11.73;;;8.87;;
31906;SDS011;18455;50.858;13.662;2023-05-02T01:38:43;12.73;;;8.97;;
31906;SDS011;18455;50.858;13.662;2023-05-02T01:43:44;11.20;;;8.93;;
31906;SDS011;18455;50.858;13.662;2023-05-02T01:48:45;11.47;;;9.00;;
31906;SDS011;18455;50.858;13.662;2023-05-02T01:53:48;13.40;;;9.03;;
31906;SDS011;18455;50.858;13.662;2023-05-02T01:58:49;12.17;;;8.73;;
31906;SDS011;18455;50.858;13.662;2023-05-02T02:03:53;13.10;;;9.10;;
31906;SDS011;18455;50.858;13.662;2023-05-02T02:08:54;10.63;;;8.47;;
31906;SDS011;18455;50.858;13.662;2023-05-02T02:14:03;12.27;;;8.70;;
31906;SDS011;18455;50.858;13.662;2023-05-02T02:19:06;12.53;;;8.60;;
31906;SDS011;18455;50.858;13.662;2023-05-02T02:24:07;12.50;;;8.97;;
31906;SDS011;18455;50.858;13.662;2023-05-02T02:29:08;12.43;;;8.53;;
31906;SDS011;18455;50.858;13.662;2023-05-02T02:34:08;11.30;;;7.57;;
31906;SDS011;18455;50.858;13.662;2023-05-02T02:39:17;11.63;;;7.73;;
31906;SDS011;18455;50.858;13.662;2023-05-02T02:44:50;10.97;;;7.63;;
31906;SDS011;18455;50.858;13.662;2023-05-02T02:50:14;10.27;;;7.53;;
31906;SDS011;18455;50.858;13.662;2023-05-02T02:55:30;9.93;;;7.47;;
31906;SDS011;18455;50.858;13.662;2023-05-02T03:00:37;14.83;;;7.90;;
31906;SDS011;18455;50.858;13.662;2023-05-02T03:05:38;11.13;;;7.63;;
31906;SDS011;18455;50.858;13.662;2023-05-02T03:10:39;14.10;;;8.50;;
31906;SDS011;18455;50.858;13.662;2023-05-02T03:20:53;12.13;;;7.60;;
31906;SDS011;18455;50.858;13.662;2023-05-02T03:25:54;12.10;;;7.53;;
31906;SDS011;18455;50.858;13.662;2023-05-02T03:30:57;10.53;;;7.70;;
31906;SDS011;18455;50.858;13.662;2023-05-02T03:35:58;10.57;;;7.77;;
31906;SDS011;18455;50.858;13.662;2023-05-02T03:40:59;11.80;;;7.77;;
31906;SDS011;18455;50.858;13.662;2023-05-02T03:46:03;12.50;;;7.70;;
31906;SDS011;18455;50.858;13.662;2023-05-02T03:51:05;9.77;;;7.43;;
31906;SDS011;18455;50.858;13.662;2023-05-02T03:56:17;10.60;;;7.20;;
31906;SDS011;18455;50.858;13.662;2023-05-02T04:01:29;14.53;;;7.17;;
31906;SDS011;18455;50.858;13.662;2023-05-02T04:06:32;10.40;;;7.17;;
31906;SDS011;18455;50.858;13.662;2023-05-02T04:11:36;10.93;;;7.50;;
31906;SDS011;18455;50.858;13.662;2023-05-02T04:16:38;10.93;;;7.23;;
31906;SDS011;18455;50.858;13.662;2023-05-02T04:21:39;10.70;;;8.33;;
31906;SDS011;18455;50.858;13.662;2023-05-02T04:26:41;8.67;;;6.97;;
31906;SDS011;18455;50.858;13.662;2023-05-02T04:31:44;12.00;;;7.10;;
31906;SDS011;18455;50.858;13.662;2023-05-02T04:36:46;11.27;;;6.90;;
31906;SDS011;18455;50.858;13.662;2023-05-02T04:41:52;11.03;;;7.23;;
31906;SDS011;18455;50.858;13.662;2023-05-02T04:46:54;8.63;;;6.73;;
31906;SDS011;18455;50.858;13.662;2023-05-02T04:51:54;9.00;;;7.07;;
31906;SDS011;18455;50.858;13.662;2023-05-02T04:56:56;9.27;;;7.47;;
31906;SDS011;18455;50.858;13.662;2023-05-02T05:01:58;9.23;;;6.93;;
31906;SDS011;18455;50.858;13.662;2023-05-02T05:06:59;10.67;;;7.43;;
31906;SDS011;18455;50.858;13.662;2023-05-02T05:12:02;10.33;;;6.73;;
31906;SDS011;18455;50.858;13.662;2023-05-02T05:17:05;12.30;;;7.03;;
31906;SDS011;18455;50.858;13.662;2023-05-02T05:22:06;10.43;;;6.97;;
31906;SDS011;18455;50.858;13.662;2023-05-02T05:27:07;9.33;;;6.90;;
31906;SDS011;18455;50.858;13.662;2023-05-02T05:32:09;11.27;;;7.37;;
31906;SDS011;18455;50.858;13.662;2023-05-02T05:37:10;8.00;;;7.20;;
31906;SDS011;18455;50.858;13.662;2023-05-02T05:42:10;9.77;;;7.10;;
31906;SDS011;18455;50.858;13.662;2023-05-02T05:47:17;12.93;;;7.33;;
31906;SDS011;18455;50.858;13.662;2023-05-02T05:52:18;9.23;;;7.47;;
31906;SDS011;18455;50.858;13.662;2023-05-02T05:57:19;11.30;;;6.60;;
31906;SDS011;18455;50.858;13.662;2023-05-02T06:02:20;9.30;;;6.50;;
31906;SDS011;18455;50.858;13.662;2023-05-02T06:07:20;11.47;;;6.57;;
31906;SDS011;18455;50.858;13.662;2023-05-02T06:12:21;10.67;;;6.43;;
31906;SDS011;18455;50.858;13.662;2023-05-02T06:17:21;8.50;;;6.32;;
31906;SDS011;18455;50.858;13.662;2023-05-02T06:22:23;9.90;;;6.50;;
31906;SDS011;18455;50.858;13.662;2023-05-02T06:27:23;7.63;;;5.83;;
31906;SDS011;18455;50.858;13.662;2023-05-02T06:32:23;11.93;;;6.10;;
31906;SDS011;18455;50.858;13.662;2023-05-02T06:37:24;16.00;;;6.97;;
31906;SDS011;18455;50.858;13.662;2023-05-02T06:42:24;12.60;;;6.28;;
31906;SDS011;18455;50.858;13.662;2023-05-02T06:47:24;9.40;;;5.85;;
31906;SDS011;18455;50.858;13.662;2023-05-02T06:52:25;9.65;;;6.38;;
31906;SDS011;18455;50.858;13.662;2023-05-02T06:57:25;6.80;;;5.55;;
31906;SDS011;18455;50.858;13.662;2023-05-02T07:02:26;9.18;;;5.80;;
31906;SDS011;18455;50.858;13.662;2023-05-02T07:07:26;11.15;;;5.93;;
31906;SDS011;18455;50.858;13.662;2023-05-02T07:12:26;8.32;;;5.95;;
31906;SDS011;18455;50.858;13.662;2023-05-02T07:17:27;8.57;;;5.10;;
31906;SDS011;18455;50.858;13.662;2023-05-02T07:22:28;8.55;;;6.05;;
31906;SDS011;18455;50.858;13.662;2023-05-02T07:27:28;6.68;;;5.65;;
31906;SDS011;18455;50.858;13.662;2023-05-02T07:32:29;9.38;;;5.38;;
31906;SDS011;18455;50.858;13.662;2023-05-02T07:37:33;6.10;;;4.30;;
31906;SDS011;18455;50.858;13.662;2023-05-02T07:42:34;7.00;;;4.03;;
31906;SDS011;18455;50.858;13.662;2023-05-02T07:47:35;6.38;;;4.63;;
31906;SDS011;18455;50.858;13.662;2023-05-02T07:52:35;8.18;;;4.65;;
31906;SDS011;18455;50.858;13.662;2023-05-02T07:57:36;5.25;;;4.18;;
31906;SDS011;18455;50.858;13.662;2023-05-02T08:02:36;4.25;;;3.85;;
31906;SDS011;18455;50.858;13.662;2023-05-02T08:07:36;8.00;;;4.07;;
31906;SDS011;18455;50.858;13.662;2023-05-02T08:12:37;5.80;;;4.50;;
31906;SDS011;18455;50.858;13.662;2023-05-02T08:17:39;5.30;;;4.72;;
31906;SDS011;18455;50.858;13.662;2023-05-02T08:22:39;6.85;;;4.95;;
31906;SDS011;18455;50.858;13.662;2023-05-02T08:27:39;5.38;;;4.88;;
31906;SDS011;18455;50.858;13.662;2023-05-02T08:32:40;8.15;;;5.40;;
31906;SDS011;18455;50.858;13.662;2023-05-02T08:37:40;5.90;;;4.78;;
31906;SDS011;18455;50.858;13.662;2023-05-02T08:42:41;6.40;;;5.25;;
31906;SDS011;18455;50.858;13.662;2023-05-02T08:47:42;6.75;;;5.35;;
31906;SDS011;18455;50.858;13.662;2023-05-02T08:52:43;7.03;;;5.20;;
31906;SDS011;18455;50.858;13.662;2023-05-02T08:57:45;6.57;;;5.20;;
31906;SDS011;18455;50.858;13.662;2023-05-02T09:03:20;7.03;;;5.32;;
31906;SDS011;18455;50.858;13.662;2023-05-02T09:08:20;6.22;;;5.07;;
31906;SDS011;18455;50.858;13.662;2023-05-02T09:13:34;6.80;;;5.30;;
31906;SDS011;18455;50.858;13.662;2023-05-02T09:18:43;7.03;;;5.22;;
31906;SDS011;18455;50.858;13.662;2023-05-02T09:23:45;6.95;;;4.88;;
31906;SDS011;18455;50.858;13.662;2023-05-02T09:28:50;8.35;;;5.43;;
31906;SDS011;18455;50.858;13.662;2023-05-02T09:33:51;6.30;;;4.90;;
31906;SDS011;18455;50.858;13.662;2023-05-02T09:38:52;8.52;;;4.80;;
31906;SDS011;18455;50.858;13.662;2023-05-02T09:44:11;8.63;;;5.38;;
31906;SDS011;18455;50.858;13.662;2023-05-02T09:49:12;11.80;;;5.70;;
31906;SDS011;18455;50.858;13.662;2023-05-02T09:54:34;9.82;;;5.18;;
31906;SDS011;18455;50.858;13.662;2023-05-02T09:59:38;6.55;;;5.07;;
31906;SDS011;18455;50.858;13.662;2023-05-02T10:04:38;10.13;;;5.68;;
31906;SDS011;18455;50.858;13.662;2023-05-02T10:09:41;8.25;;;6.13;;
31906;SDS011;18455;50.858;13.662;2023-05-02T10:14:45;9.55;;;6.70;;
31906;SDS011;18455;50.858;13.662;2023-05-02T10:19:56;11.43;;;7.95;;
31906;SDS011;18455;50.858;13.662;2023-05-02T10:24:58;7.43;;;6.07;;
31906;SDS011;18455;50.858;13.662;2023-05-02T10:29:59;12.15;;;7.68;;
31906;SDS011;18455;50.858;13.662;2023-05-02T10:35:03;13.25;;;8.52;;
31906;SDS011;18455;50.858;13.662;2023-05-02T10:40:06;11.40;;;9.13;;
31906;SDS011;18455;50.858;13.662;2023-05-02T10:45:10;12.70;;;8.93;;
31906;SDS011;18455;50.858;13.662;2023-05-02T10:50:11;10.10;;;8.35;;
31906;SDS011;18455;50.858;13.662;2023-05-02T11:00:19;12.55;;;7.43;;
31906;SDS011;18455;50.858;13.662;2023-05-02T11:05:21;11.38;;;8.10;;
31906;SDS011;18455;50.858;13.662;2023-05-02T11:10:25;12.70;;;7.97;;
31906;SDS011;18455;50.858;13.662;2023-05-02T11:20:35;16.23;;;8.93;;
31906;SDS011;18455;50.858;13.662;2023-05-02T11:25:39;11.98;;;8.77;;
31906;SDS011;18455;50.858;13.662;2023-05-02T11:30:41;10.88;;;8.45;;
31906;SDS011;18455;50.858;13.662;2023-05-02T11:35:43;15.90;;;9.82;;
31906;SDS011;18455;50.858;13.662;2023-05-02T11:40:57;11.02;;;8.73;;
31906;SDS011;18455;50.858;13.662;2023-05-02T11:45:59;11.60;;;8.43;;
31906;SDS011;18455;50.858;13.662;2023-05-02T11:51:00;9.98;;;8.70;;
31906;SDS011;18455;50.858;13.662;2023-05-02T11:56:06;13.23;;;8.45;;
31906;SDS011;18455;50.858;13.662;2023-05-02T12:01:14;12.70;;;8.55;;
31906;SDS011;18455;50.858;13.662;2023-05-02T12:06:15;13.32;;;8.85;;
31906;SDS011;18455;50.858;13.662;2023-05-02T12:11:17;14.32;;;8.88;;
31906;SDS011;18455;50.858;13.662;2023-05-02T12:16:18;10.32;;;8.90;;
31906;SDS011;18455;50.858;13.662;2023-05-02T12:21:18;11.85;;;8.70;;
31906;SDS011;18455;50.858;13.662;2023-05-02T12:26:19;11.85;;;8.52;;
31906;SDS011;18455;50.858;13.662;2023-05-02T12:31:21;11.23;;;7.53;;
31906;SDS011;18455;50.858;13.662;2023-05-02T12:36:22;11.90;;;8.10;;
31906;SDS011;18455;50.858;13.662;2023-05-02T12:41:32;12.63;;;7.68;;
31906;SDS011;18455;50.858;13.662;2023-05-02T12:46:36;9.13;;;6.95;;
31906;SDS011;18455;50.858;13.662;2023-05-02T12:51:38;7.93;;;6.20;;
31906;SDS011;18455;50.858;13.662;2023-05-02T12:56:38;9.63;;;6.20;;
31906;SDS011;18455;50.858;13.662;2023-05-02T13:01:39;8.77;;;6.13;;
31906;SDS011;18455;50.858;13.662;2023-05-02T13:06:40;6.22;;;5.63;;
31906;SDS011;18455;50.858;13.662;2023-05-02T13:11:41;8.27;;;5.70;;
31906;SDS011;18455;50.858;13.662;2023-05-02T13:16:41;6.28;;;5.65;;
31906;SDS011;18455;50.858;13.662;2023-05-02T13:21:41;12.05;;;6.30;;
31906;SDS011;18455;50.858;13.662;2023-05-02T13:26:45;9.27;;;5.72;;
31906;SDS011;18455;50.858;13.662;2023-05-02T13:31:46;7.45;;;6.03;;
31906;SDS011;18455;50.858;13.662;2023-05-02T13:36:46;8.80;;;6.53;;
31906;SDS011;18455;50.858;13.662;2023-05-02T13:41:46;7.43;;;6.32;;
31906;SDS011;18455;50.858;13.662;2023-05-02T13:46:47;10.63;;;6.60;;
31906;SDS011;18455;50.858;13.662;2023-05-02T13:51:47;6.53;;;5.72;;
31906;SDS011;18455;50.858;13.662;2023-05-02T13:56:48;7.25;;;6.03;;
31906;SDS011;18455;50.858;13.662;2023-05-02T14:01:48;6.68;;;5.97;;
31906;SDS011;18455;50.858;13.662;2023-05-02T14:06:48;9.13;;;5.30;;
31906;SDS011;18455;50.858;13.662;2023-05-02T14:11:49;9.30;;;5.47;;
31906;SDS011;18455;50.858;13.662;2023-05-02T14:16:49;6.53;;;4.93;;
31906;SDS011;18455;50.858;13.662;2023-05-02T14:21:50;6.97;;;5.70;;
31906;SDS011;18455;50.858;13.662;2023-05-02T14:26:50;9.73;;;6.03;;
31906;SDS011;18455;50.858;13.662;2023-05-02T14:31:51;8.63;;;6.00;;
31906;SDS011;18455;50.858;13.662;2023-05-02T14:36:51;10.30;;;6.05;;
31906;SDS011;18455;50.858;13.662;2023-05-02T14:41:51;8.57;;;6.43;;
31906;SDS011;18455;50.858;13.662;2023-05-02T14:46:53;9.15;;;6.88;;
31906;SDS011;18455;50.858;13.662;2023-05-02T14:51:53;11.95;;;6.38;;
31906;SDS011;18455;50.858;13.662;2023-05-02T14:56:54;9.45;;;6.47;;
31906;SDS011;18455;50.858;13.662;2023-05-02T15:01:54;10.90;;;7.38;;
31906;SDS011;18455;50.858;13.662;2023-05-02T15:06:55;8.30;;;7.43;;
31906;SDS011;18455;50.858;13.662;2023-05-02T15:11:57;9.30;;;7.45;;
31906;SDS011;18455;50.858;13.662;2023-05-02T15:16:57;11.50;;;7.55;;
31906;SDS011;18455;50.858;13.662;2023-05-02T15:21:57;10.02;;;7.55;;
31906;SDS011;18455;50.858;13.662;2023-05-02T15:26:58;10.25;;;7.25;;
31906;SDS011;18455;50.858;13.662;2023-05-02T15:31:58;12.32;;;8.45;;
31906;SDS011;18455;50.858;13.662;2023-05-02T15:36:58;13.15;;;9.23;;
31906;SDS011;18455;50.858;13.662;2023-05-02T15:42:01;13.13;;;9.50;;
31906;SDS011;18455;50.858;13.662;2023-05-02T15:47:03;20.95;;;11.43;;
31906;SDS011;18455;50.858;13.662;2023-05-02T15:52:04;16.50;;;9.80;;
31906;SDS011;18455;50.858;13.662;2023-05-02T15:57:22;13.23;;;9.85;;
31906;SDS011;18455;50.858;13.662;2023-05-02T16:03:26;16.45;;;9.57;;
31906;SDS011;18455;50.858;13.662;2023-05-02T16:08:26;10.98;;;8.07;;
31906;SDS011;18455;50.858;13.662;2023-05-02T16:13:27;13.30;;;8.05;;
31906;SDS011;18455;50.858;13.662;2023-05-02T16:18:27;10.40;;;8.00;;
31906;SDS011;18455;50.858;13.662;2023-05-02T16:23:28;16.77;;;7.60;;
31906;SDS011;18455;50.858;13.662;2023-05-02T16:28:28;10.30;;;7.68;;
31906;SDS011;18455;50.858;13.662;2023-05-02T16:33:28;10.80;;;7.10;;
31906;SDS011;18455;50.858;13.662;2023-05-02T16:38:29;10.77;;;6.80;;
31906;SDS011;18455;50.858;13.662;2023-05-02T16:43:29;13.23;;;7.40;;
31906;SDS011;18455;50.858;13.662;2023-05-02T16:48:30;11.02;;;7.35;;
31906;SDS011;18455;50.858;13.662;2023-05-02T16:53:30;10.40;;;7.25;;
31906;SDS011;18455;50.858;13.662;2023-05-02T16:58:31;10.23;;;7.00;;
31906;SDS011;18455;50.858;13.662;2023-05-02T17:03:31;13.63;;;6.87;;
31906;SDS011;18455;50.858;13.662;2023-05-02T17:08:31;9.83;;;6.83;;
31906;SDS011;18455;50.858;13.662;2023-05-02T17:13:32;12.40;;;6.70;;
31906;SDS011;18455;50.858;13.662;2023-05-02T17:18:33;11.80;;;6.28;;
31906;SDS011;18455;50.858;13.662;2023-05-02T17:23:34;12.93;;;6.03;;
31906;SDS011;18455;50.858;13.662;2023-05-02T17:28:34;10.23;;;6.63;;
31906;SDS011;18455;50.858;13.662;2023-05-02T17:33:35;9.05;;;6.22;;
31906;SDS011;18455;50.858;13.662;2023-05-02T17:38:35;10.15;;;5.60;;
31906;SDS011;18455;50.858;13.662;2023-05-02T17:43:36;9.83;;;5.77;;
31906;SDS011;18455;50.858;13.662;2023-05-02T17:48:37;9.17;;;5.97;;
31906;SDS011;18455;50.858;13.662;2023-05-02T17:53:37;10.98;;;5.93;;
31906;SDS011;18455;50.858;13.662;2023-05-02T17:58:38;13.80;;;6.77;;
31906;SDS011;18455;50.858;13.662;2023-05-02T18:03:38;16.33;;;6.90;;
31906;SDS011;18455;50.858;13.662;2023-05-02T18:08:39;8.37;;;6.43;;
31906;SDS011;18455;50.858;13.662;2023-05-02T18:13:39;11.03;;;6.23;;
31906;SDS011;18455;50.858;13.662;2023-05-02T18:18:40;9.97;;;6.10;;
31906;SDS011;18455;50.858;13.662;2023-05-02T18:23:40;8.87;;;5.47;;
31906;SDS011;18455;50.858;13.662;2023-05-02T18:28:41;9.50;;;5.03;;
31906;SDS011;18455;50.858;13.662;2023-05-02T18:33:41;7.30;;;4.57;;
31906;SDS011;18455;50.858;13.662;2023-05-02T18:38:42;10.87;;;4.47;;
31906;SDS011;18455;50.858;13.662;2023-05-02T18:43:42;10.13;;;4.80;;
31906;SDS011;18455;50.858;13.662;2023-05-02T18:48:42;11.73;;;4.93;;
31906;SDS011;18455;50.858;13.662;2023-05-02T18:53:43;7.30;;;4.43;;
31906;SDS011;18455;50.858;13.662;2023-05-02T18:58:43;14.60;;;4.13;;
31906;SDS011;18455;50.858;13.662;2023-05-02T19:03:45;9.53;;;4.40;;
31906;SDS011;18455;50.858;13.662;2023-05-02T19:08:45;10.67;;;4.53;;
31906;SDS011;18455;50.858;13.662;2023-05-02T19:13:46;10.77;;;4.83;;
31906;SDS011;18455;50.858;13.662;2023-05-02T19:18:46;12.07;;;4.70;;
31906;SDS011;18455;50.858;13.662;2023-05-02T19:23:50;6.67;;;4.00;;
31906;SDS011;18455;50.858;13.662;2023-05-02T19:28:51;10.07;;;4.43;;
31906;SDS011;18455;50.858;13.662;2023-05-02T19:33:52;7.17;;;3.93;;
31906;SDS011;18455;50.858;13.662;2023-05-02T19:38:53;8.33;;;4.77;;
31906;SDS011;18455;50.858;13.662;2023-05-02T19:43:56;5.97;;;3.90;;
31906;SDS011;18455;50.858;13.662;2023-05-02T19:48:58;14.70;;;4.43;;
31906;SDS011;18455;50.858;13.662;2023-05-02T19:53:58;10.97;;;4.17;;
31906;SDS011;18455;50.858;13.662;2023-05-02T19:58:59;9.57;;;4.10;;
31906;SDS011;18455;50.858;13.662;2023-05-02T20:04:00;7.17;;;4.37;;
31906;SDS011;18455;50.858;13.662;2023-05-02T20:09:00;13.20;;;4.03;;
31906;SDS011;18455;50.858;13.662;2023-05-02T20:14:00;9.40;;;4.07;;
31906;SDS011;18455;50.858;13.662;2023-05-02T20:19:01;5.57;;;3.47;;
31906;SDS011;18455;50.858;13.662;2023-05-02T20:24:03;7.63;;;3.77;;
31906;SDS011;18455;50.858;13.662;2023-05-02T20:29:04;4.73;;;3.33;;
31906;SDS011;18455;50.858;13.662;2023-05-02T20:34:06;6.73;;;3.40;;
31906;SDS011;18455;50.858;13.662;2023-05-02T20:39:06;9.07;;;3.70;;
31906;SDS011;18455;50.858;13.662;2023-05-02T20:44:07;4.80;;;3.37;;
31906;SDS011;18455;50.858;13.662;2023-05-02T20:49:08;10.87;;;3.50;;
31906;SDS011;18455;50.858;13.662;2023-05-02T20:54:08;6.83;;;3.57;;
31906;SDS011;18455;50.858;13.662;2023-05-02T20:59:08;8.30;;;3.90;;
31906;SDS011;18455;50.858;13.662;2023-05-02T21:04:10;15.03;;;3.87;;
31906;SDS011;18455;50.858;13.662;2023-05-02T21:09:10;7.27;;;3.50;;
31906;SDS011;18455;50.858;13.662;2023-05-02T21:14:11;12.30;;;4.10;;
31906;SDS011;18455;50.858;13.662;2023-05-02T21:19:11;7.73;;;3.80;;
31906;SDS011;18455;50.858;13.662;2023-05-02T21:24:12;9.13;;;3.87;;
31906;SDS011;18455;50.858;13.662;2023-05-02T21:29:12;8.83;;;3.53;;
31906;SDS011;18455;50.858;13.662;2023-05-02T21:34:13;6.63;;;3.43;;
31906;SDS011;18455;50.858;13.662;2023-05-02T21:39:14;7.60;;;3.40;;
31906;SDS011;18455;50.858;13.662;2023-05-02T21:44:15;7.63;;;3.90;;
31906;SDS011;18455;50.858;13.662;2023-05-02T21:49:15;8.00;;;3.93;;
31906;SDS011;18455;50.858;13.662;2023-05-02T21:54:15;8.63;;;3.57;;
31906;SDS011;18455;50.858;13.662;2023-05-02T21:59:16;12.23;;;4.10;;
31906;SDS011;18455;50.858;13.662;2023-05-02T22:04:17;8.80;;;4.07;;
31906;SDS011;18455;50.858;13.662;2023-05-02T22:09:17;8.10;;;3.87;;
31906;SDS011;18455;50.858;13.662;2023-05-02T22:14:18;8.20;;;3.87;;
31906;SDS011;18455;50.858;13.662;2023-05-02T22:19:18;9.53;;;3.60;;
31906;SDS011;18455;50.858;13.662;2023-05-02T22:24:18;11.23;;;4.00;;
31906;SDS011;18455;50.858;13.662;2023-05-02T22:29:19;6.93;;;4.33;;
31906;SDS011;18455;50.858;13.662;2023-05-02T22:34:20;6.13;;;4.07;;
31906;SDS011;18455;50.858;13.662;2023-05-02T22:39:20;10.83;;;4.77;;
31906;SDS011;18455;50.858;13.662;2023-05-02T22:44:21;10.80;;;4.33;;
31906;SDS011;18455;50.858;13.662;2023-05-02T22:49:21;8.33;;;4.13;;
31906;SDS011;18455;50.858;13.662;2023-05-02T22:54:22;8.60;;;4.70;;
31906;SDS011;18455;50.858;13.662;2023-05-02T22:59:23;10.00;;;4.70;;
31906;SDS011;18455;50.858;13.662;2023-05-02T23:04:23;10.77;;;4.40;;
31906;SDS011;18455;50.858;13.662;2023-05-02T23:09:24;10.13;;;4.73;;
31906;SDS011;18455;50.858;13.662;2023-05-02T23:14:24;6.83;;;4.50;;
31906;SDS011;18455;50.858;13.662;2023-05-02T23:19:25;8.40;;;4.90;;
31906;SDS011;18455;50.858;13.662;2023-05-02T23:24:25;11.50;;;4.90;;
31906;SDS011;18455;50.858;13.662;2023-05-02T23:29:25;7.97;;;4.13;;
31906;SDS011;18455;50.858;13.662;2023-05-02T23:34:26;7.17;;;4.23;;
31906;SDS011;18455;50.858;13.662;2023-05-02T23:39:26;14.93;;;5.03;;
31906;SDS011;18455;50.858;13.662;2023-05-02T23:44:26;16.23;;;5.13;;
31906;SDS011;18455;50.858;13.662;2023-05-02T23:49:27;11.47;;;5.10;;
31906;SDS011;18455;50.858;13.662;2023-05-02T23:54:27;13.47;;;5.53;;
31906;SDS011;18455;50.858;13.662;2023-05-02T23:59:29;10.50;;;5.27;;
